Time;durP1;ratioP1;P1;durP2;ratioP2;P2;SDS_P1;SDS_P2;PMS_P1;PMS_P2;Temp;Humidity;BMP_temperature;BMP_pressure;BME280_temperature;BME280_humidity;BME280_pressure;Samples;Min_cycle;Max_cycle;Signal;HPM_P1;HPM_P2
2021/04/01 00:02:06;;;;;;;24.88;11.02;;;;;;;9.93;40.17;94234.41;5089855;28;20020;-71
2021/04/01 00:04:31;;;;;;;22.17;11.18;;;;;;;9.92;40.23;94228.31;5089609;28;20120;-72
2021/04/01 00:06:56;;;;;;;17.95;9.77;;;;;;;9.96;39.92;94217.88;5089637;28;20507;-72
2021/04/01 00:09:22;;;;;;;20.85;10.93;;;;;;;9.92;39.21;94217.66;5089405;28;20020;-71
2021/04/01 00:11:47;;;;;;;21.77;11.45;;;;;;;9.87;39.36;94219.66;5089534;28;20372;-71
2021/04/01 00:14:13;;;;;;;20.80;10.98;;;;;;;9.82;39.27;94217.88;5090412;28;20373;-71
2021/04/01 00:16:39;;;;;;;21.85;10.43;;;;;;;9.79;39.77;94213.97;5090880;28;20030;-71
2021/04/01 00:19:04;;;;;;;21.48;11.35;;;;;;;9.77;40.63;94210.81;5090962;28;20036;-71
2021/04/01 00:21:30;;;;;;;20.13;10.20;;;;;;;9.80;40.79;94199.53;5090186;28;20062;-71
2021/04/01 00:23:55;;;;;;;27.85;10.93;;;;;;;9.83;41.86;94192.81;5090851;28;20313;-71
2021/04/01 00:26:22;;;;;;;18.58;10.55;;;;;;;9.83;42.88;94198.97;5090251;28;20020;-71
2021/04/01 00:28:48;;;;;;;19.92;10.55;;;;;;;9.81;42.85;94192.34;5090617;28;20100;-71
2021/04/01 00:31:13;;;;;;;21.48;10.45;;;;;;;9.83;41.91;94193.63;5090684;28;20096;-71
2021/04/01 00:33:39;;;;;;;22.45;10.15;;;;;;;9.84;40.86;94178.44;5090275;28;20028;-71
2021/04/01 00:36:05;;;;;;;21.70;11.23;;;;;;;9.77;39.91;94183.38;5089200;28;20044;-71
2021/04/01 00:38:30;;;;;;;20.75;11.60;;;;;;;9.74;40.24;94189.31;5090230;28;20548;-71
2021/04/01 00:40:56;;;;;;;23.80;11.45;;;;;;;9.73;40.18;94177.06;5088978;28;20411;-71
2021/04/01 00:43:21;;;;;;;22.25;11.52;;;;;;;9.67;39.96;94173.75;5088777;28;20025;-71
2021/04/01 00:45:47;;;;;;;18.38;10.27;;;;;;;9.56;40.23;94172.38;5088908;28;20028;-72
2021/04/01 00:48:13;;;;;;;20.05;9.40;;;;;;;9.42;40.91;94165.22;5089025;28;20023;-72
2021/04/01 00:50:38;;;;;;;17.63;9.82;;;;;;;9.20;41.37;94170.47;5090135;28;20482;-72
2021/04/01 00:53:04;;;;;;;17.92;9.45;;;;;;;9.07;41.38;94163.28;5090273;28;20509;-71
2021/04/01 00:55:29;;;;;;;16.85;8.98;;;;;;;9.01;41.45;94157.25;5088495;28;20059;-72
2021/04/01 00:57:57;;;;;;;21.92;9.20;;;;;;;8.98;41.60;94163.97;5089901;28;20116;-71
2021/04/01 01:00:26;;;;;;;16.67;8.77;;;;;;;9.03;41.61;94155.09;5090063;28;20115;-72
2021/04/01 01:02:52;;;;;;;19.73;9.68;;;;;;;9.00;41.39;94148.50;5088733;28;20133;-71
2021/04/01 01:05:18;;;;;;;21.55;9.60;;;;;;;8.94;41.89;94144.38;5088698;28;20023;-72
2021/04/01 01:07:44;;;;;;;18.35;8.68;;;;;;;9.01;42.18;94142.09;5088566;28;20387;-72
2021/04/01 01:10:13;;;;;;;16.33;9.10;;;;;;;9.12;42.57;94141.88;5089884;28;20047;-72
2021/04/01 01:12:39;;;;;;;17.48;9.30;;;;;;;9.18;43.47;94140.69;5089816;28;20153;-71
2021/04/01 01:15:07;;;;;;;21.30;10.57;;;;;;;9.20;43.62;94142.00;5090024;28;20085;-71
2021/04/01 01:17:33;;;;;;;18.48;9.77;;;;;;;9.26;43.23;94142.69;5089804;28;20032;-72
2021/04/01 01:19:58;;;;;;;19.25;10.40;;;;;;;9.31;43.59;94136.47;5090040;28;20558;-71
2021/04/01 01:22:24;;;;;;;19.92;9.20;;;;;;;9.32;43.19;94140.69;5088598;28;20036;-71
2021/04/01 01:24:51;;;;;;;17.58;9.05;;;;;;;9.37;43.13;94137.94;5088229;28;20028;-71
2021/04/01 01:27:18;;;;;;;18.70;9.00;;;;;;;9.43;43.12;94134.09;5088511;28;20023;-72
2021/04/01 01:29:50;;;;;;;20.83;8.40;;;;;;;9.49;42.93;94124.13;5088336;28;20036;-72
2021/04/01 01:32:17;;;;;;;19.90;9.93;;;;;;;9.54;43.01;94116.00;5089767;28;20042;-72
2021/04/01 01:34:43;;;;;;;25.15;9.68;;;;;;;9.56;43.13;94111.19;5087887;28;20044;-72
2021/04/01 01:37:09;;;;;;;22.23;10.30;;;;;;;9.64;42.15;94094.50;5089927;28;20123;-72
2021/04/01 01:39:35;;;;;;;14.20;7.68;;;;;;;9.52;39.53;94080.94;5089307;28;20059;-72
2021/04/01 01:42:00;;;;;;;11.73;5.95;;;;;;;9.44;38.79;94082.44;5088312;28;20085;-72
2021/04/01 01:44:26;;;;;;;12.50;6.13;;;;;;;9.37;38.95;94080.19;5089699;28;20043;-71
2021/04/01 01:46:51;;;;;;;13.38;6.50;;;;;;;9.31;39.19;94075.28;5089382;28;20505;-71
2021/04/01 01:49:17;;;;;;;12.40;6.05;;;;;;;9.24;39.01;94078.38;5088211;28;20047;-71
2021/04/01 01:51:42;;;;;;;12.00;5.60;;;;;;;9.24;38.25;94076.47;5089433;28;20032;-71
2021/04/01 01:54:07;;;;;;;11.40;6.30;;;;;;;9.22;37.90;94076.00;5089534;28;20024;-71
2021/04/01 01:56:34;;;;;;;9.98;5.65;;;;;;;9.26;37.70;94078.03;5089592;28;20111;-71
2021/04/01 01:59:00;;;;;;;12.10;6.00;;;;;;;9.25;38.47;94077.25;5087893;28;20028;-71
2021/04/01 02:01:26;;;;;;;12.38;6.70;;;;;;;9.29;39.42;94070.25;5091577;28;20462;-71
2021/04/01 02:03:53;;;;;;;12.90;6.38;;;;;;;9.36;40.19;94059.19;5093221;28;20055;-71
2021/04/01 02:06:20;;;;;;;11.63;5.80;;;;;;;9.31;39.01;94046.81;5093461;28;20475;-71
2021/04/01 02:08:49;;;;;;;12.77;6.60;;;;;;;9.19;38.96;94033.25;5091982;28;20032;-71
2021/04/01 02:11:18;;;;;;;12.27;6.93;;;;;;;9.05;40.60;94038.59;5093508;28;20418;-71
2021/04/01 02:13:44;;;;;;;14.43;7.25;;;;;;;8.98;41.38;94049.63;5092990;28;20047;-71
2021/04/01 02:16:10;;;;;;;17.98;8.50;;;;;;;8.90;41.75;94052.22;5093279;28;20487;-72
2021/04/01 02:18:36;;;;;;;18.75;8.23;;;;;;;8.97;42.30;94057.91;5091685;28;20039;-72
2021/04/01 02:21:02;;;;;;;18.55;8.95;;;;;;;8.99;43.15;94061.81;5091427;28;20032;-71
2021/04/01 02:23:30;;;;;;;17.00;9.38;;;;;;;9.04;43.27;94069.72;5093087;28;20024;-71
2021/04/01 02:25:57;;;;;;;18.02;9.80;;;;;;;9.07;43.12;94063.00;5091423;28;20118;-71
2021/04/01 02:28:24;;;;;;;22.67;11.15;;;;;;;9.09;43.50;94068.03;5091608;28;20032;-72
2021/04/01 02:30:52;;;;;;;20.90;10.88;;;;;;;9.10;43.59;94077.56;5091319;28;20028;-73
2021/04/01 02:33:22;;;;;;;23.08;11.13;;;;;;;9.12;43.33;94084.19;5091360;28;20023;-72
2021/04/01 02:35:48;;;;;;;25.23;12.32;;;;;;;9.15;43.54;94096.09;5092720;28;20055;-72
2021/04/01 02:38:14;;;;;;;24.08;12.15;;;;;;;9.18;43.28;94084.84;5092961;28;20032;-72
2021/04/01 02:40:40;;;;;;;25.20;11.43;;;;;;;9.21;43.57;94090.38;5091693;28;20427;-72
2021/04/01 02:43:06;;;;;;;24.63;11.75;;;;;;;9.27;42.36;94096.38;5092362;28;20028;-72
2021/04/01 02:45:32;;;;;;;23.45;12.23;;;;;;;9.30;42.59;94102.97;5091486;28;20119;-72
2021/04/01 02:47:58;;;;;;;23.58;12.02;;;;;;;9.23;42.37;94106.81;5090943;28;20024;-72
2021/04/01 02:50:24;;;;;;;25.77;12.25;;;;;;;9.27;42.61;94114.22;5092526;28;20030;-72
2021/04/01 02:52:49;;;;;;;25.52;12.60;;;;;;;9.28;42.94;94115.78;5091366;28;20111;-72
2021/04/01 02:55:15;;;;;;;30.25;12.68;;;;;;;9.28;44.03;94121.09;5092223;28;20136;-72
2021/04/01 02:57:41;;;;;;;30.00;13.25;;;;;;;9.31;43.98;94121.28;5091141;28;20107;-72
2021/04/01 03:00:13;;;;;;;26.58;13.40;;;;;;;9.37;42.99;94119.31;5092137;28;20453;-72
2021/04/01 03:02:42;;;;;;;22.98;13.00;;;;;;;9.39;43.40;94120.59;5090998;28;20035;-72
2021/04/01 03:05:10;;;;;;;22.48;12.27;;;;;;;9.30;43.68;94118.91;5092529;28;20051;-72
2021/04/01 03:07:37;;;;;;;24.70;12.40;;;;;;;9.29;43.86;94114.69;5092521;28;20031;-72
2021/04/01 03:10:04;;;;;;;26.33;12.32;;;;;;;9.30;44.62;94113.59;5090735;28;20016;-72
2021/04/01 03:12:30;;;;;;;27.75;13.25;;;;;;;9.36;44.56;94113.22;5090691;28;20024;-72
2021/04/01 03:14:55;;;;;;;29.73;13.00;;;;;;;9.41;42.34;94101.66;5090792;28;20092;-72
2021/04/01 03:17:21;;;;;;;24.27;12.63;;;;;;;9.33;42.17;94105.81;5091672;28;20020;-72
2021/04/01 03:19:46;;;;;;;22.95;12.82;;;;;;;9.15;42.65;94093.44;5092291;28;20391;-72
2021/04/01 03:22:12;;;;;;;22.77;12.88;;;;;;;8.96;42.70;94097.00;5091816;28;20020;-72
2021/04/01 03:24:37;;;;;;;19.00;11.30;;;;;;;8.89;42.55;94093.94;5091930;28;20020;-72
2021/04/01 03:27:03;;;;;;;20.58;10.27;;;;;;;8.88;42.63;94086.28;5090521;28;20032;-72
2021/04/01 03:29:28;;;;;;;22.80;10.85;;;;;;;8.88;43.09;94081.75;5091833;28;20400;-71
2021/04/01 03:31:54;;;;;;;21.48;10.90;;;;;;;8.78;43.47;94080.06;5090450;28;20099;-72
2021/04/01 03:34:19;;;;;;;19.80;11.30;;;;;;;8.63;43.46;94088.34;5090265;28;20426;-72
2021/04/01 03:36:45;;;;;;;18.05;10.80;;;;;;;8.64;43.55;94079.28;5090573;28;20032;-71
2021/04/01 03:39:12;;;;;;;20.15;9.73;;;;;;;8.73;41.89;94072.22;5090074;28;20532;-72
2021/04/01 03:41:37;;;;;;;20.75;9.70;;;;;;;8.72;42.22;94069.84;5091637;28;20443;-71
2021/04/01 03:44:03;;;;;;;18.85;10.02;;;;;;;8.77;42.95;94061.75;5091548;28;20103;-71
2021/04/01 03:46:28;;;;;;;19.65;9.70;;;;;;;8.81;42.26;94073.38;5089862;28;20429;-72
2021/04/01 03:48:54;;;;;;;18.00;9.18;;;;;;;8.67;41.69;94081.38;5090086;28;20039;-72
2021/04/01 03:51:19;;;;;;;21.20;10.30;;;;;;;8.61;42.82;94085.97;5091277;28;20380;-71
2021/04/01 03:53:45;;;;;;;24.02;9.77;;;;;;;8.67;42.53;94075.25;5090042;28;20030;-71
2021/04/01 03:56:10;;;;;;;21.38;9.90;;;;;;;8.66;42.99;94085.09;5091104;28;20020;-72
2021/04/01 04:11:53;;;;;;;21.23;10.55;;;;;;;8.89;42.27;94085.19;5091439;28;20160;-72
2021/04/01 04:14:31;;;;;;;26.90;11.52;;;;;;;8.92;42.49;94090.69;5090790;28;20507;-72
2021/04/01 04:16:57;;;;;;;19.38;10.70;;;;;;;8.96;43.32;94090.91;5089615;28;20043;-72
2021/04/01 04:19:22;;;;;;;28.35;11.77;;;;;;;9.01;43.68;94080.94;5090844;28;20501;-72
2021/04/01 04:21:48;;;;;;;24.05;14.30;;;;;;;9.06;42.36;94085.38;5089716;28;20020;-73
2021/04/01 04:24:14;;;;;;;24.05;13.32;;;;;;;9.11;42.22;94087.91;5090510;28;20050;-72
2021/04/01 04:26:39;;;;;;;32.30;12.25;;;;;;;9.12;42.15;94078.06;5090678;28;20448;-72
2021/04/01 04:29:04;;;;;;;20.23;11.27;;;;;;;9.14;42.21;94087.34;5089216;28;20038;-71
2021/04/01 04:31:30;;;;;;;26.27;12.63;;;;;;;9.18;42.86;94087.50;5090263;28;20024;-71
2021/04/01 04:33:55;;;;;;;22.13;12.77;;;;;;;9.18;43.31;94095.47;5090478;28;20024;-72
2021/04/01 04:36:21;;;;;;;26.80;13.07;;;;;;;9.19;43.96;94099.72;5089286;28;20023;-72
2021/04/01 04:38:46;;;;;;;25.98;12.70;;;;;;;9.19;44.28;94099.72;5088569;28;20113;-72
2021/04/01 04:41:11;;;;;;;31.85;16.92;;;;;;;9.18;44.21;94108.78;5090399;28;20399;-72
2021/04/01 04:43:37;;;;;;;36.30;17.48;;;;;;;9.19;44.10;94105.06;5088737;28;20035;-72
2021/04/01 04:46:03;;;;;;;38.50;16.15;;;;;;;9.19;44.57;94118.34;5088876;28;20150;-72
2021/04/01 04:48:29;;;;;;;28.90;15.18;;;;;;;9.20;44.34;94117.28;5090085;28;20028;-72
2021/04/01 04:50:55;;;;;;;36.90;17.15;;;;;;;9.22;44.67;94115.09;5090208;28;20031;-72
2021/04/01 04:53:21;;;;;;;40.05;18.70;;;;;;;9.23;44.79;94125.44;5088691;28;20028;-72
2021/04/01 04:59:18;;;;;;;47.88;16.98;;;;;;;9.23;44.27;94128.09;5090399;28;20124;-72
2021/04/01 05:09:15;;;;;;;31.00;16.35;;;;;;;9.20;44.74;94138.56;5089839;28;20102;-71
2021/04/01 05:11:41;;;;;;;36.55;16.23;;;;;;;9.26;44.63;94142.69;5089658;28;20031;-72
2021/04/01 05:14:06;;;;;;;30.40;16.83;;;;;;;9.26;44.56;94152.50;5089577;28;20380;-72
2021/04/01 05:16:31;;;;;;;34.67;17.00;;;;;;;9.27;44.43;94138.16;5088600;28;20039;-72
2021/04/01 05:19:00;;;;;;;40.45;16.17;;;;;;;9.27;44.33;94146.13;5088540;28;20119;-72
2021/04/01 05:21:35;;;;;;;32.00;17.75;;;;;;;9.28;44.25;94142.38;5089786;28;20056;-72
2021/04/01 05:24:04;;;;;;;29.80;15.95;;;;;;;9.33;43.81;94147.59;5088130;28;20101;-72
2021/04/01 05:29:08;;;;;;;38.08;15.85;;;;;;;9.43;42.70;94145.50;5089457;28;20059;-72
2021/04/01 05:31:35;;;;;;;45.17;17.58;;;;;;;9.44;43.36;94151.59;5088534;28;20062;-72
2021/04/01 05:34:00;;;;;;;41.45;17.30;;;;;;;9.47;43.35;94144.91;5088787;28;20459;-72
2021/04/01 05:36:34;;;;;;;39.45;19.35;;;;;;;9.48;43.49;94147.25;5090535;28;20040;-72
2021/04/01 05:39:00;;;;;;;30.48;14.95;;;;;;;9.52;42.74;94150.13;5092108;28;20369;-73
2021/04/01 05:41:28;;;;;;;27.90;13.10;;;;;;;9.54;42.24;94153.28;5092461;28;20053;-73
2021/04/01 05:44:09;;;;;;;32.30;14.15;;;;;;;9.57;41.76;94158.00;5093670;28;20031;-73
2021/04/01 05:46:55;;;;;;;27.08;13.05;;;;;;;9.64;40.94;94161.03;5093452;28;20129;-73
2021/04/01 05:52:36;;;;;;;27.15;13.55;;;;;;;9.81;40.81;94158.53;5093860;28;20024;-72
2021/04/01 06:04:22;;;;;;;20.63;10.95;;;;;;;10.09;39.49;94160.31;5073565;28;20119;-72
2021/04/01 06:09:19;;;;;;;24.95;9.60;;;;;;;10.27;38.83;94170.00;5093534;28;20042;-72
2021/04/01 06:11:49;;;;;;;18.17;9.13;;;;;;;10.38;39.65;94176.69;5093451;28;20028;-72
2021/04/01 06:14:21;;;;;;;21.17;8.88;;;;;;;10.49;40.58;94171.91;5092047;28;20104;-73
2021/04/01 06:16:47;;;;;;;18.77;7.78;;;;;;;10.60;39.15;94185.75;5093283;28;20132;-73
2021/04/01 06:19:17;;;;;;;17.13;7.90;;;;;;;10.71;38.18;94180.97;5093290;28;20066;-73
2021/04/01 06:21:48;;;;;;;18.40;8.20;;;;;;;10.82;38.24;94188.38;5093107;28;20114;-74
2021/04/01 06:24:28;;;;;;;18.87;8.47;;;;;;;10.95;38.15;94181.41;5093115;28;20035;-83
2021/04/01 06:27:11;;;;;;;18.98;8.02;;;;;;;11.11;38.60;94191.66;5091278;28;20274;-83
2021/04/01 06:29:40;;;;;;;25.20;10.13;;;;;;;11.22;38.38;94182.31;5092970;28;20035;-83
2021/04/01 06:32:23;;;;;;;15.52;8.10;;;;;;;11.36;37.54;94188.31;5089253;28;20028;-82
2021/04/01 06:34:50;;;;;;;17.55;8.40;;;;;;;11.46;37.13;94179.25;5092349;28;20048;-82
2021/04/01 06:39:59;;;;;;;18.35;8.80;;;;;;;11.70;36.41;94186.81;5093127;28;20184;-82
2021/04/01 06:42:33;;;;;;;15.98;9.13;;;;;;;11.72;35.48;94184.59;5091068;28;20024;-81
2021/04/01 06:45:09;;;;;;;20.75;11.07;;;;;;;11.75;35.82;94194.69;5091567;28;20097;-81
2021/04/01 06:47:36;;;;;;;19.58;8.95;;;;;;;11.64;35.89;94199.53;5091932;28;20026;-81
2021/04/01 06:50:05;;;;;;;17.48;9.93;;;;;;;11.67;37.17;94192.00;5092021;28;20024;-81
2021/04/01 06:52:44;;;;;;;17.00;9.27;;;;;;;11.83;37.13;94201.91;5090683;28;20036;-81
2021/04/01 06:55:30;;;;;;;22.45;9.45;;;;;;;12.01;37.14;94186.72;5093706;28;20081;-82
2021/04/01 07:03:47;;;;;;;19.90;11.00;;;;;;;12.42;37.19;94192.69;5092268;28;20051;-83
2021/04/01 07:06:30;;;;;;;20.90;10.68;;;;;;;12.49;36.76;94189.53;5091211;28;20036;-82
2021/04/01 07:09:01;;;;;;;;;;;;;;;12.52;36.62;94194.28;5092320;28;20020;-85
2021/04/01 07:11:34;;;;;;;16.92;9.40;;;;;;;12.54;37.00;94192.06;5090767;28;20355;-82
2021/04/01 07:14:11;;;;;;;;;;;;;;;12.53;38.45;94191.25;5091258;28;20452;-82
2021/04/01 07:16:52;;;;;;;22.60;12.65;;;;;;;12.26;39.09;94194.28;5090687;28;20382;-85
2021/04/01 07:19:46;;;;;;;29.77;13.03;;;;;;;12.31;39.83;94189.53;5090607;28;20129;-86
2021/04/01 07:36:04;;;;;;;23.08;12.38;;;;;;;12.54;39.16;94206.22;5091643;28;20535;-80
2021/04/01 07:47:05;;;;;;;20.27;12.52;;;;;;;12.31;39.85;94204.81;5091096;28;20084;-84
2021/04/01 07:49:31;;;;;;;17.25;11.32;;;;;;;12.27;40.09;94206.53;5091524;28;20035;-83
2021/04/01 07:52:03;;;;;;;23.35;12.43;;;;;;;12.28;40.38;94210.78;5089680;28;20016;-84
2021/04/01 07:54:36;;;;;;;27.73;11.95;;;;;;;12.40;40.42;94202.94;5090672;28;20024;-84
2021/04/01 07:57:25;;;;;;;20.95;12.43;;;;;;;12.51;39.87;94209.50;5090944;28;20474;-81
2021/04/01 07:59:57;;;;;;;22.65;11.82;;;;;;;12.61;39.02;94209.19;5085150;28;20085;-82
2021/04/01 08:02:31;;;;;;;25.88;11.27;;;;;;;12.61;39.44;94213.75;5090929;28;20031;-83
2021/04/01 08:04:58;;;;;;;19.05;11.00;;;;;;;12.37;39.85;94206.22;5089846;28;20407;-83
2021/04/01 08:07:29;;;;;;;23.00;11.48;;;;;;;12.43;39.44;94202.28;5089883;28;20415;-81
2021/04/01 08:10:00;;;;;;;24.85;12.35;;;;;;;12.12;39.86;94200.56;5089844;28;20090;-81
2021/04/01 08:12:33;;;;;;;22.42;10.88;;;;;;;12.07;40.52;94199.91;5091820;28;20075;-86
2021/04/01 08:15:12;;;;;;;22.35;11.57;;;;;;;12.04;40.54;94190.66;5089416;28;20046;-80
2021/04/01 08:17:52;;;;;;;23.80;11.32;;;;;;;12.13;40.56;94199.47;5089018;28;20030;-80
2021/04/01 08:20:22;;;;;;;21.23;10.43;;;;;;;12.21;39.66;94198.69;5090115;28;20075;-82
2021/04/01 08:23:10;;;;;;;23.60;10.48;;;;;;;12.03;40.69;94197.13;5090573;28;20475;-82
2021/04/01 08:25:43;;;;;;;21.60;9.70;;;;;;;11.95;40.33;94201.34;5090345;28;20054;-82
2021/04/01 08:29:09;;;;;;;17.70;9.73;;;;;;;11.84;40.74;94195.50;5089211;28;20031;-81
2021/04/01 08:36:36;;;;;;;18.77;8.25;;;;;;;11.65;40.88;94187.75;5091148;28;20136;-79
2021/04/01 08:39:03;;;;;;;15.25;7.93;;;;;;;11.76;40.53;94185.56;5089267;28;20053;-79
2021/04/01 08:41:34;;;;;;;16.77;8.52;;;;;;;11.75;40.44;94180.56;5088736;28;20031;-81
2021/04/01 08:44:38;;;;;;;17.92;8.15;;;;;;;11.84;40.67;94186.69;5089093;28;20072;-79
2021/04/01 08:47:36;;;;;;;19.65;8.25;;;;;;;12.02;40.45;94176.81;5084145;28;20625;-80
2021/04/01 08:50:35;;;;;;;12.05;7.57;;;;;;;12.22;40.21;94186.88;5088995;28;20506;-80
2021/04/01 08:53:33;;;;;;;14.15;6.57;;;;;;;12.42;39.61;94188.13;5087893;28;20023;-79
2021/04/01 08:56:25;;;;;;;10.57;5.50;;;;;;;12.64;37.90;94179.16;5041781;28;20046;-82
2021/04/01 08:59:22;;;;;;;13.63;6.43;;;;;;;12.91;37.44;94174.50;5088981;28;20402;-82
2021/04/01 09:01:55;;;;;;;11.85;6.32;;;;;;;13.12;37.68;94173.81;5083181;28;20039;-82
2021/04/01 09:04:26;;;;;;;9.38;5.78;;;;;;;13.33;37.21;94177.38;5088901;28;20170;-81
2021/04/01 09:07:13;;;;;;;16.95;9.50;;;;;;;13.51;35.79;94182.63;5088589;28;20028;-80
2021/04/01 09:09:41;;;;;;;13.38;6.00;;;;;;;13.66;35.25;94176.75;5088523;28;20031;-77
2021/04/01 09:14:57;;;;;;;13.38;6.72;;;;;;;14.04;35.28;94171.28;5090505;28;20411;-76
2021/04/01 09:17:37;;;;;;;17.48;5.80;;;;;;;14.18;33.41;94165.63;5085643;28;20560;-76
2021/04/01 09:20:19;;;;;;;10.85;5.88;;;;;;;14.06;32.20;94157.53;5088204;28;20027;-76
2021/04/01 09:22:48;;;;;;;9.68;5.50;;;;;;;14.01;32.55;94149.72;5087690;28;20363;-75
2021/04/01 09:25:14;;;;;;;12.52;6.85;;;;;;;13.94;34.16;94152.91;5088006;28;20036;-76
2021/04/01 09:27:48;;;;;;;9.23;5.13;;;;;;;14.01;31.64;94144.34;5088979;28;20020;-76
2021/04/01 09:30:16;;;;;;;19.08;5.20;;;;;;;14.07;31.95;94143.03;5089613;28;20055;-76
2021/04/01 09:32:43;;;;;;;8.63;5.63;;;;;;;14.10;30.51;94145.06;5088234;28;20028;-76
2021/04/01 09:35:10;;;;;;;12.40;6.90;;;;;;;13.98;31.33;94150.34;5088385;28;20040;-76
2021/04/01 09:37:48;;;;;;;17.00;6.40;;;;;;;13.79;31.67;94138.19;5089062;28;20104;-76
2021/04/01 09:40:14;;;;;;;12.60;6.45;;;;;;;13.56;31.72;94144.97;5089008;28;20020;-76
2021/04/01 09:42:42;;;;;;;17.05;5.72;;;;;;;13.55;31.98;94138.03;5088816;28;20008;-76
2021/04/01 09:45:32;;;;;;;11.38;4.97;;;;;;;13.73;32.79;94131.47;5090286;28;20402;-76
2021/04/01 09:48:00;;;;;;;9.75;4.50;;;;;;;13.84;31.59;94124.63;5088200;28;20047;-76
2021/04/01 09:50:30;;;;;;;15.32;5.70;;;;;;;13.97;31.86;94122.00;5090344;28;20472;-76
2021/04/01 09:53:02;;;;;;;12.05;5.10;;;;;;;14.15;31.90;94131.47;5088551;28;20107;-76
2021/04/01 09:55:41;;;;;;;17.13;6.33;;;;;;;14.13;29.29;94124.88;5088458;28;20035;-76
2021/04/01 09:58:30;;;;;;;7.65;4.38;;;;;;;14.17;30.32;94110.47;5089264;28;20387;-76
2021/04/01 10:01:09;;;;;;;14.50;4.97;;;;;;;14.22;30.17;94104.13;5090385;28;20103;-76
2021/04/01 10:03:56;;;;;;;10.60;4.70;;;;;;;14.30;30.21;94099.78;5088088;28;20036;-76
2021/04/01 10:06:39;;;;;;;14.75;5.30;;;;;;;14.31;30.18;94099.47;5090181;28;20066;-76
2021/04/01 10:09:15;;;;;;;8.00;4.68;;;;;;;14.21;29.65;94095.28;5088847;28;20020;-76
2021/04/01 10:11:48;;;;;;;7.70;5.00;;;;;;;14.26;29.99;94096.97;5089146;28;20036;-76
2021/04/01 10:14:15;;;;;;;47.92;20.88;;;;;;;14.29;30.73;94095.53;5089585;28;20024;-75
2021/04/01 10:16:54;;;;;;;31.73;11.40;;;;;;;14.48;29.21;94098.50;5088365;28;20111;-75
2021/04/01 10:19:23;;;;;;;12.25;4.78;;;;;;;14.58;29.56;94087.38;5088274;28;20189;-75
2021/04/01 10:21:50;;;;;;;8.38;4.75;;;;;;;14.82;30.27;94094.69;5089283;28;20089;-76
2021/04/01 10:24:22;;;;;;;6.47;4.00;;;;;;;15.05;29.60;94088.91;5092144;28;20016;-75
2021/04/01 10:26:54;;;;;;;6.82;4.05;;;;;;;15.24;29.13;94086.44;5091825;28;20487;-75
2021/04/01 10:29:29;;;;;;;10.75;4.50;;;;;;;15.42;29.26;94083.50;5091895;28;20066;-75
2021/04/01 10:31:56;;;;;;;9.60;4.53;;;;;;;15.49;26.91;94080.25;5093313;28;20027;-75
2021/04/01 10:34:46;;;;;;;10.93;4.45;;;;;;;15.52;27.79;94074.22;5091847;28;20109;-76
2021/04/01 10:37:15;;;;;;;14.85;4.25;;;;;;;15.68;27.42;94056.25;5092249;28;20031;-76
2021/04/01 10:39:41;;;;;;;7.97;4.03;;;;;;;15.79;27.23;94064.66;5091882;28;20027;-76
2021/04/01 10:42:09;;;;;;;17.17;3.55;;;;;;;15.90;26.23;94065.75;5091992;28;20031;-76
2021/04/01 10:44:36;;;;;;;7.50;3.50;;;;;;;15.94;25.74;94057.78;5093465;28;20403;-77
2021/04/01 10:47:04;;;;;;;5.93;3.22;;;;;;;15.98;25.34;94064.03;5091472;28;20594;-78
2021/04/01 10:49:32;;;;;;;8.95;2.85;;;;;;;16.05;24.95;94050.78;5091384;28;20471;-74
2021/04/01 10:52:02;;;;;;;12.23;4.05;;;;;;;16.07;24.25;94053.13;5091118;28;20032;-76
2021/04/01 10:54:42;;;;;;;6.07;3.30;;;;;;;16.12;24.68;94056.38;5091589;28;20032;-76
2021/04/01 10:57:09;;;;;;;14.18;3.25;;;;;;;16.23;24.00;94052.03;5091216;28;20040;-74
2021/04/01 10:59:48;;;;;;;9.40;3.35;;;;;;;16.41;24.24;94055.22;5093089;28;20474;-77
2021/04/01 11:02:23;;;;;;;7.32;2.25;;;;;;;16.60;23.42;94037.59;5091900;28;20035;-77
2021/04/01 11:05:24;;;;;;;7.97;2.95;;;;;;;16.71;21.77;94035.16;5091424;28;20052;-77
2021/04/01 11:08:04;;;;;;;5.20;2.78;;;;;;;16.76;21.74;94033.00;5092176;28;20024;-80
2021/04/01 11:10:32;;;;;;;8.73;2.85;;;;;;;16.55;21.12;94027.88;5091234;28;20039;-81
2021/04/01 11:12:59;;;;;;;11.32;3.03;;;;;;;16.46;21.89;94029.94;5091695;28;20024;-83
2021/04/01 11:15:27;;;;;;;6.00;3.67;;;;;;;16.44;21.98;94022.25;5092056;28;20419;-81
2021/04/01 11:18:08;;;;;;;9.40;3.05;;;;;;;16.50;23.49;94017.38;5092827;28;20036;-82
2021/04/01 11:20:38;;;;;;;10.68;3.30;;;;;;;16.74;22.28;94019.13;5092471;28;20031;-82
2021/04/01 11:23:25;;;;;;;4.63;2.47;;;;;;;16.98;22.46;94023.56;5090695;28;20074;-83
2021/04/01 11:25:53;;;;;;;13.85;3.20;;;;;;;17.07;22.08;94031.44;5090449;28;20020;-83
2021/04/01 11:28:41;;;;;;;9.25;3.20;;;;;;;17.14;21.83;94020.84;5090771;28;20027;-84
2021/04/01 11:31:21;;;;;;;8.07;2.67;;;;;;;17.32;21.92;94010.47;5090371;28;20069;-83
2021/04/01 11:33:47;;;;;;;15.35;3.35;;;;;;;17.53;21.71;94006.69;5090457;28;20085;-86
2021/04/01 11:36:17;;;;;;;6.82;4.15;;;;;;;17.69;20.70;94002.00;5089813;28;20485;-84
2021/04/01 11:38:48;;;;;;;6.25;3.22;;;;;;;17.77;20.32;93990.25;5090404;28;20052;-81
2021/04/01 11:41:17;;;;;;;6.15;2.80;;;;;;;17.68;19.14;93995.03;5090031;28;20028;-79
2021/04/01 11:43:42;;;;;;;6.03;3.30;;;;;;;17.60;20.44;93987.94;5090246;28;20024;-80
2021/04/01 11:46:17;;;;;;;5.47;2.65;;;;;;;17.72;20.05;93989.72;5089358;28;20111;-80
2021/04/01 11:48:43;;;;;;;7.43;3.17;;;;;;;17.86;19.73;93987.34;5090781;28;20031;-81
2021/04/01 11:51:31;;;;;;;12.10;3.67;;;;;;;18.02;19.08;93979.19;5090481;28;20042;-81
2021/04/01 11:54:11;;;;;;;5.30;3.10;;;;;;;18.01;18.61;93975.72;5089106;28;20176;-82
2021/04/01 11:56:45;;;;;;;5.40;2.60;;;;;;;18.18;18.61;93977.16;5084586;28;20028;-79
2021/04/01 11:59:20;;;;;;;14.40;3.22;;;;;;;18.39;18.65;93967.88;5090388;28;20072;-75
2021/04/01 12:01:56;;;;;;;10.82;3.30;;;;;;;18.50;18.59;93966.16;5091585;28;20092;-77
2021/04/01 12:04:30;;;;;;;6.68;2.95;;;;;;;18.65;18.55;93967.16;5091256;28;20051;-79
2021/04/01 12:06:57;;;;;;;11.88;2.90;;;;;;;18.81;17.20;93956.25;5093221;28;20395;-77
2021/04/01 12:09:23;;;;;;;8.20;3.22;;;;;;;18.68;17.08;93958.31;5090313;28;20380;-75
2021/04/01 12:11:49;;;;;;;6.93;2.97;;;;;;;18.78;18.49;93956.94;5089670;28;20024;-75
2021/04/01 12:14:16;;;;;;;9.98;3.10;;;;;;;19.02;17.74;93955.78;5089731;28;20534;-77
2021/04/01 12:16:43;;;;;;;8.38;3.00;;;;;;;19.05;16.48;93949.66;5091707;28;20081;-76
2021/04/01 12:19:09;;;;;;;4.72;2.70;;;;;;;19.09;16.92;93949.69;5090346;28;20020;-77
2021/04/01 12:21:35;;;;;;;8.80;2.67;;;;;;;19.18;17.38;93937.50;5089399;28;20036;-76
2021/04/01 12:24:03;;;;;;;8.60;3.25;;;;;;;19.20;16.79;93931.72;5089476;28;20016;-76
2021/04/01 12:26:30;;;;;;;7.90;2.85;;;;;;;19.36;17.56;93936.97;5089285;28;20502;-77
2021/04/01 12:28:58;;;;;;;7.28;2.40;;;;;;;19.61;17.34;93938.03;5089620;28;20020;-76
2021/04/01 12:31:34;;;;;;;10.48;2.95;;;;;;;19.82;16.74;93934.03;5090628;28;20483;-77
2021/04/01 12:34:00;;;;;;;9.82;2.95;;;;;;;19.94;16.79;93928.38;5090806;28;20039;-76
2021/04/01 12:36:36;;;;;;;6.32;3.20;;;;;;;19.84;16.24;93924.44;5089169;28;20028;-77
2021/04/01 12:39:06;;;;;;;9.80;3.58;;;;;;;19.99;16.59;93933.47;5085718;28;20497;-78
2021/04/01 12:41:35;;;;;;;6.53;2.72;;;;;;;20.11;15.43;93926.22;5090695;28;20059;-77
2021/04/01 12:44:01;;;;;;;8.75;2.63;;;;;;;19.95;16.80;93921.81;5089107;28;20024;-77
2021/04/01 12:46:36;;;;;;;25.90;4.13;;;;;;;19.92;15.35;93929.91;5088554;28;20023;-75
2021/04/01 12:49:02;;;;;;;13.73;3.28;;;;;;;19.51;15.56;93911.66;5085036;28;20092;-76
2021/04/01 12:51:28;;;;;;;8.88;3.55;;;;;;;19.22;15.87;93899.72;5090910;28;20039;-78
2021/04/01 12:54:07;;;;;;;11.80;3.00;;;;;;;18.94;16.82;93903.59;5089949;28;20549;-76
2021/04/01 12:56:42;;;;;;;10.45;3.17;;;;;;;18.97;17.04;93912.88;5089361;28;20054;-76
2021/04/01 13:04:02;;;;;;;11.18;3.20;;;;;;;19.53;16.59;93905.88;5091189;28;20024;-76
2021/04/01 13:11:20;;;;;;;12.70;3.30;;;;;;;20.58;15.57;93903.88;5089757;28;20483;-76
2021/04/01 13:13:46;;;;;;;6.88;2.40;;;;;;;20.70;15.85;93896.59;5088450;28;20085;-74